Time;durP1;ratioP1;P1;durP2;ratioP2;P2;SDS_P1;SDS_P2;PMS_P1;PMS_P2;Temp;Humidity;BMP_temperature;BMP_pressure;BME280_temperature;BME280_humidity;BME280_pressure;Samples;Min_cycle;Max_cycle;Signal;HPM_P1;HPM_P2
2022/10/09 00:00:42;;;;;;;14.65;3.97;;;8.20;99.90;;;;;;5049199;28;20048;-80
2022/10/09 00:03:08;;;;;;;16.38;4.05;;;8.20;99.90;;;;;;5064664;28;20066;-80
2022/10/09 00:05:34;;;;;;;18.40;4.03;;;8.20;99.90;;;;;;5044468;28;20052;-79
2022/10/09 00:07:59;;;;;;;15.75;3.85;;;8.30;99.90;;;;;;5067978;28;20341;-82
2022/10/09 00:10:25;;;;;;;13.50;4.07;;;8.00;99.90;;;;;;5066227;28;20048;-80
2022/10/09 00:12:51;;;;;;;15.43;3.95;;;8.20;99.90;;;;;;5064970;28;20052;-81
2022/10/09 00:15:16;;;;;;;12.77;3.70;;;8.10;99.90;;;;;;5065567;28;20048;-80
2022/10/09 00:17:42;;;;;;;14.10;3.60;;;8.10;99.90;;;;;;5067203;28;20119;-80
2022/10/09 00:20:08;;;;;;;12.13;3.40;;;8.00;99.90;;;;;;5049473;28;20093;-81
2022/10/09 00:22:34;;;;;;;13.80;3.65;;;8.00;99.90;;;;;;5046570;28;20048;-80
2022/10/09 00:25:00;;;;;;;14.35;3.55;;;8.00;99.90;;;;;;5072220;28;20050;-79
2022/10/09 00:27:25;;;;;;;12.43;3.40;;;7.90;99.90;;;;;;5066463;28;20040;-81
2022/10/09 00:29:51;;;;;;;13.10;4.07;;;7.90;99.90;;;;;;5065546;28;20134;-81
2022/10/09 00:32:17;;;;;;;12.93;3.25;;;7.80;99.90;;;;;;5048922;28;20024;-77
2022/10/09 00:34:42;;;;;;;16.25;4.07;;;7.80;99.90;;;;;;5065011;28;20104;-79
2022/10/09 00:37:08;;;;;;;9.95;3.65;;;7.80;99.90;;;;;;5046780;28;20499;-81
2022/10/09 00:39:35;;;;;;;9.50;3.80;;;7.70;99.90;;;;;;5062967;28;20072;-85
2022/10/09 00:42:01;;;;;;;17.13;4.07;;;7.60;99.90;;;;;;5045945;28;20337;-83
2022/10/09 00:44:45;;;;;;;16.42;3.90;;;7.70;99.90;;;;;;5047241;28;20028;-79
2022/10/09 00:47:23;;;;;;;19.63;3.80;;;7.60;99.90;;;;;;5067928;28;20089;-80
2022/10/09 00:49:52;;;;;;;14.68;3.90;;;7.60;99.90;;;;;;5047358;28;20118;-84
2022/10/09 00:52:20;;;;;;;14.07;3.38;;;7.60;99.90;;;;;;5049874;28;20052;-81
2022/10/09 00:54:46;;;;;;;14.82;3.50;;;7.60;99.90;;;;;;5060642;28;20123;-80
2022/10/09 00:57:12;;;;;;;12.68;3.53;;;7.60;99.90;;;;;;5066648;28;20123;-82
2022/10/09 00:59:38;;;;;;;16.27;3.90;;;7.60;99.90;;;;;;5064086;28;20375;-80
2022/10/09 01:02:06;;;;;;;15.55;3.33;;;7.60;99.90;;;;;;5066977;28;20036;-79
2022/10/09 01:04:32;;;;;;;15.85;3.67;;;7.60;99.90;;;;;;5052619;28;20067;-81
2022/10/09 01:07:16;;;;;;;13.13;3.30;;;7.70;99.90;;;;;;5059971;28;20111;-81
2022/10/09 01:10:10;;;;;;;12.63;3.28;;;7.60;99.90;;;;;;5053138;28;20491;-83
2022/10/09 01:12:57;;;;;;;12.30;3.38;;;7.70;99.90;;;;;;5076058;28;22482;-77
2022/10/09 01:15:37;;;;;;;15.80;3.30;;;7.70;99.90;;;;;;5061976;28;20028;-76
2022/10/09 01:18:17;;;;;;;9.35;2.85;;;7.60;99.90;;;;;;5062460;28;20135;-82
2022/10/09 01:20:57;;;;;;;12.77;3.08;;;7.50;99.90;;;;;;5064025;28;20055;-78
2022/10/09 01:23:47;;;;;;;10.90;3.28;;;7.50;99.90;;;;;;5067887;28;20736;-78
2022/10/09 01:26:16;;;;;;;12.23;3.83;;;7.50;99.90;;;;;;5045115;28;20040;-80
2022/10/09 01:28:50;;;;;;;16.30;3.78;;;7.60;99.90;;;;;;5064772;28;20120;-82
2022/10/09 01:31:18;;;;;;;16.55;3.55;;;7.50;99.90;;;;;;5044369;28;20064;-80
2022/10/09 01:33:45;;;;;;;15.50;3.60;;;7.40;99.90;;;;;;5046913;28;20122;-83
2022/10/09 01:36:13;;;;;;;15.90;3.55;;;7.40;99.90;;;;;;5047665;28;20040;-83
2022/10/09 01:38:40;;;;;;;9.45;3.60;;;7.40;99.90;;;;;;5061026;28;20064;-80
2022/10/09 01:41:07;;;;;;;15.15;3.65;;;7.40;99.90;;;;;;5046528;28;20059;-80
2022/10/09 01:43:33;;;;;;;16.25;4.78;;;7.30;99.90;;;;;;5046360;28;20072;-77
2022/10/09 01:46:26;;;;;;;14.35;4.68;;;7.30;99.90;;;;;;5063545;28;20125;-82
2022/10/09 01:49:01;;;;;;;12.65;4.45;;;7.30;99.90;;;;;;5046198;28;20044;-78
2022/10/09 01:51:34;;;;;;;12.32;4.10;;;7.30;99.90;;;;;;5061838;28;20036;-86
2022/10/09 01:54:03;;;;;;;13.75;4.05;;;7.30;99.90;;;;;;5047566;28;20056;-79
2022/10/09 01:56:33;;;;;;;14.20;3.78;;;7.20;99.90;;;;;;5045077;28;20044;-81
2022/10/09 01:59:04;;;;;;;13.63;3.83;;;7.30;99.90;;;;;;5048355;28;20051;-80
2022/10/09 02:01:35;;;;;;;12.55;3.85;;;7.30;99.90;;;;;;5053319;28;20051;-80
2022/10/09 02:04:06;;;;;;;11.55;3.83;;;7.30;99.90;;;;;;5048356;28;20089;-81
2022/10/09 02:06:33;;;;;;;17.00;4.32;;;7.20;99.90;;;;;;5068445;28;20037;-78
2022/10/09 02:09:01;;;;;;;15.38;3.65;;;7.20;99.90;;;;;;5068005;28;20040;-85
2022/10/09 02:11:30;;;;;;;11.95;3.90;;;7.10;99.90;;;;;;5066166;28;20119;-82
2022/10/09 02:13:56;;;;;;;10.90;3.80;;;7.20;99.90;;;;;;5066457;28;20060;-83
2022/10/09 02:16:40;;;;;;;13.07;3.72;;;7.10;99.90;;;;;;5067989;28;20032;-81
2022/10/09 02:19:29;;;;;;;16.00;3.83;;;7.00;99.90;;;;;;5051624;28;20540;-79
2022/10/09 02:21:59;;;;;;;13.88;3.78;;;7.00;99.90;;;;;;5070164;28;20044;-79
2022/10/09 02:24:26;;;;;;;13.85;3.72;;;7.00;99.90;;;;;;5051053;28;20071;-80
2022/10/09 02:26:56;;;;;;;10.70;3.80;;;6.90;99.90;;;;;;5065517;28;20032;-81
2022/10/09 02:29:22;;;;;;;13.82;4.00;;;7.00;99.90;;;;;;5068142;28;20048;-76
2022/10/09 02:31:48;;;;;;;10.43;3.70;;;6.90;99.90;;;;;;5048412;28;20470;-80
2022/10/09 02:34:18;;;;;;;10.27;3.58;;;6.90;99.90;;;;;;5048354;28;20097;-77
2022/10/09 02:36:44;;;;;;;10.27;3.78;;;6.90;99.90;;;;;;5030906;28;20105;-83
2022/10/09 02:39:11;;;;;;;12.20;3.72;;;6.90;99.90;;;;;;5048638;28;20111;-81
2022/10/09 02:41:36;;;;;;;12.65;4.00;;;6.90;99.90;;;;;;5048900;28;20048;-81
2022/10/09 02:44:04;;;;;;;17.75;4.07;;;6.90;99.90;;;;;;5066295;28;20138;-80
2022/10/09 02:46:31;;;;;;;12.88;4.13;;;6.80;99.90;;;;;;5047686;28;20028;-80
2022/10/09 02:48:57;;;;;;;14.75;4.03;;;6.80;99.90;;;;;;5050161;28;20127;-79
2022/10/09 02:51:23;;;;;;;17.23;4.10;;;6.80;99.90;;;;;;5046968;28;20432;-79
2022/10/09 02:53:53;;;;;;;12.30;4.03;;;6.80;99.90;;;;;;5063408;28;20032;-85
2022/10/09 02:56:20;;;;;;;12.23;4.35;;;6.80;99.90;;;;;;5047023;28;20840;-78
2022/10/09 02:58:46;;;;;;;15.90;4.45;;;6.70;99.90;;;;;;5063374;28;20123;-81
2022/10/09 03:01:12;;;;;;;17.17;4.80;;;6.70;99.90;;;;;;5045414;28;20108;-77
2022/10/09 03:03:37;;;;;;;13.00;4.28;;;6.70;99.90;;;;;;5063358;28;20028;-81
2022/10/09 03:06:08;;;;;;;13.15;4.68;;;6.60;99.90;;;;;;5060340;28;20547;-82
2022/10/09 03:08:35;;;;;;;15.30;4.68;;;6.70;99.90;;;;;;5028376;28;20392;-79
2022/10/09 03:11:01;;;;;;;15.10;5.00;;;6.70;99.90;;;;;;5042660;28;20562;-81
2022/10/09 03:13:27;;;;;;;16.00;5.05;;;6.60;99.90;;;;;;5045591;28;20143;-81
2022/10/09 03:15:53;;;;;;;14.57;4.70;;;6.60;99.90;;;;;;5058951;28;20064;-81
2022/10/09 03:18:18;;;;;;;12.20;4.15;;;6.70;99.90;;;;;;5045445;28;20041;-80
2022/10/09 03:20:44;;;;;;;13.32;4.95;;;6.60;99.90;;;;;;5062948;28;20044;-80
2022/10/09 03:23:11;;;;;;;17.08;5.00;;;6.60;99.90;;;;;;5047073;28;20065;-79
2022/10/09 03:25:36;;;;;;;16.70;4.82;;;6.60;99.90;;;;;;5060611;28;20045;-78
2022/10/09 03:28:02;;;;;;;20.73;5.28;;;6.60;99.90;;;;;;5062632;28;20040;-77
2022/10/09 03:30:28;;;;;;;17.40;4.80;;;6.60;99.90;;;;;;5044060;28;20117;-78
2022/10/09 03:32:53;;;;;;;14.75;5.18;;;6.60;99.90;;;;;;5060220;28;20045;-81
2022/10/09 03:35:19;;;;;;;11.48;4.47;;;6.60;99.90;;;;;;5046004;28;20506;-81
2022/10/09 03:37:45;;;;;;;14.27;5.47;;;6.60;99.90;;;;;;5065390;28;20048;-82
2022/10/09 03:40:10;;;;;;;9.82;4.22;;;6.60;99.90;;;;;;5052710;28;20123;-80
2022/10/09 03:42:36;;;;;;;16.95;4.47;;;6.50;99.90;;;;;;5065246;28;20041;-79
2022/10/09 03:45:03;;;;;;;15.35;4.40;;;6.50;99.90;;;;;;5041721;28;20040;-80
2022/10/09 03:47:30;;;;;;;8.45;3.90;;;6.50;99.90;;;;;;5051839;28;20608;-82
2022/10/09 03:49:56;;;;;;;13.57;4.70;;;6.50;99.90;;;;;;5049465;28;20141;-83
2022/10/09 03:52:22;;;;;;;18.17;4.82;;;6.50;99.90;;;;;;5067830;28;20226;-79
2022/10/09 03:54:48;;;;;;;18.50;5.32;;;6.40;99.90;;;;;;5039957;28;20047;-81
2022/10/09 03:57:14;;;;;;;16.90;4.93;;;6.40;99.90;;;;;;5061912;28;20044;-79
2022/10/09 03:59:40;;;;;;;14.00;4.63;;;6.40;99.90;;;;;;5045154;28;20040;-78
2022/10/09 04:02:06;;;;;;;13.75;5.15;;;6.40;99.90;;;;;;5047195;28;20119;-77
2022/10/09 04:04:33;;;;;;;18.05;5.35;;;6.40;99.90;;;;;;5048120;28;20101;-78
2022/10/09 04:06:58;;;;;;;19.52;5.32;;;6.40;99.90;;;;;;5063649;28;20125;-79
2022/10/09 04:09:24;;;;;;;15.48;4.97;;;6.40;99.90;;;;;;5044509;28;20044;-81
2022/10/09 04:11:50;;;;;;;14.98;5.53;;;6.40;99.90;;;;;;5049146;28;20036;-79
2022/10/09 04:14:15;;;;;;;9.20;4.93;;;6.40;99.90;;;;;;5046814;28;20048;-79
2022/10/09 04:17:18;;;;;;;14.77;5.25;;;6.30;99.90;;;;;;5048084;28;20043;-82
2022/10/09 04:19:44;;;;;;;14.55;5.45;;;6.30;99.90;;;;;;5048196;28;20131;-82
2022/10/09 04:22:09;;;;;;;12.73;5.40;;;6.20;99.90;;;;;;5064839;28;20124;-77
2022/10/09 04:24:35;;;;;;;13.75;5.32;;;6.30;99.90;;;;;;5046268;28;20040;-79
2022/10/09 04:27:01;;;;;;;10.02;5.32;;;6.20;99.90;;;;;;5065105;28;20032;-83
2022/10/09 04:29:26;;;;;;;11.27;5.47;;;6.20;99.90;;;;;;5052253;28;20090;-82
2022/10/09 04:31:52;;;;;;;11.93;4.97;;;6.20;99.90;;;;;;5046616;28;20056;-77
2022/10/09 04:34:17;;;;;;;15.45;5.93;;;6.20;99.90;;;;;;5064995;28;20411;-81
2022/10/09 04:36:43;;;;;;;13.77;5.78;;;6.10;99.90;;;;;;5067261;28;20153;-79
2022/10/09 04:39:09;;;;;;;13.15;6.28;;;6.20;99.90;;;;;;5058240;28;20032;-77
2022/10/09 04:41:34;;;;;;;13.43;6.35;;;6.20;99.90;;;;;;5048321;28;20409;-77
2022/10/09 04:44:00;;;;;;;11.55;6.50;;;6.20;99.90;;;;;;5044205;28;20039;-83
2022/10/09 04:46:26;;;;;;;14.38;7.63;;;6.20;99.90;;;;;;5048859;28;20113;-79
2022/10/09 04:48:51;;;;;;;15.75;7.40;;;6.20;99.90;;;;;;5063232;28;20073;-82
2022/10/09 04:51:17;;;;;;;16.70;7.90;;;6.10;99.90;;;;;;5042045;28;20039;-84
2022/10/09 04:53:44;;;;;;;17.67;7.93;;;6.10;99.90;;;;;;5042366;28;20039;-82
2022/10/09 04:56:17;;;;;;;17.27;7.97;;;6.10;99.90;;;;;;5043230;28;20124;-81
2022/10/09 04:58:43;;;;;;;15.07;8.77;;;6.10;99.90;;;;;;5059575;28;20028;-80
2022/10/09 05:01:20;;;;;;;20.55;9.30;;;6.10;99.90;;;;;;5059359;28;20040;-83
2022/10/09 05:03:46;;;;;;;13.48;8.68;;;6.10;99.90;;;;;;5045434;28;20040;-83
2022/10/09 05:06:12;;;;;;;16.42;8.05;;;6.10;99.90;;;;;;5028823;28;20047;-82
2022/10/09 05:08:38;;;;;;;17.98;8.75;;;6.20;99.90;;;;;;5048720;28;20776;-78
2022/10/09 05:11:06;;;;;;;20.98;9.68;;;6.10;99.90;;;;;;5046558;28;20037;-80
2022/10/09 05:13:35;;;;;;;17.23;9.55;;;6.10;99.90;;;;;;5047136;28;20066;-79
2022/10/09 05:16:07;;;;;;;17.77;9.75;;;6.10;99.90;;;;;;5043491;28;20037;-81
2022/10/09 05:18:34;;;;;;;24.30;10.20;;;6.10;99.90;;;;;;5045258;28;20068;-82
2022/10/09 05:21:03;;;;;;;20.02;9.75;;;6.10;99.90;;;;;;5062088;28;20063;-82
2022/10/09 05:23:31;;;;;;;19.33;10.45;;;6.10;99.90;;;;;;5044204;28;20478;-81
2022/10/09 05:25:59;;;;;;;22.27;10.35;;;6.10;99.90;;;;;;5058896;28;20068;-79
2022/10/09 05:28:24;;;;;;;19.17;9.90;;;6.10;99.90;;;;;;5062864;28;20064;-82
2022/10/09 05:30:50;;;;;;;23.23;11.13;;;6.10;99.90;;;;;;5044715;28;20064;-78
2022/10/09 05:33:17;;;;;;;19.17;10.48;;;6.10;99.90;;;;;;5066586;28;20040;-80
2022/10/09 05:35:54;;;;;;;19.40;10.45;;;6.10;99.90;;;;;;5070122;28;20051;-80
2022/10/09 05:38:21;;;;;;;23.90;10.98;;;6.00;99.90;;;;;;5049862;28;20056;-80
2022/10/09 05:40:59;;;;;;;29.42;11.13;;;6.00;99.90;;;;;;5053582;28;20087;-80
2022/10/09 05:43:28;;;;;;;20.80;10.77;;;6.00;99.90;;;;;;5065843;28;20074;-82
2022/10/09 05:45:54;;;;;;;23.45;11.13;;;6.00;99.90;;;;;;5067928;28;20036;-78
2022/10/09 05:48:20;;;;;;;17.25;10.13;;;6.00;99.90;;;;;;5054519;28;20366;-79
2022/10/09 05:50:46;;;;;;;22.77;10.93;;;5.90;99.90;;;;;;5052886;28;21228;-80
2022/10/09 05:53:12;;;;;;;19.90;10.48;;;5.90;99.90;;;;;;5053165;28;20048;-77
2022/10/09 05:55:38;;;;;;;20.50;10.32;;;6.00;99.90;;;;;;5052541;28;20043;-80
2022/10/09 05:58:03;;;;;;;22.90;11.18;;;5.90;99.90;;;;;;5053460;28;20035;-83
2022/10/09 06:00:30;;;;;;;14.88;10.13;;;6.00;99.90;;;;;;5054568;28;20143;-80
2022/10/09 06:02:55;;;;;;;18.75;9.93;;;5.90;99.90;;;;;;5054916;28;20475;-81
2022/10/09 06:05:22;;;;;;;18.05;10.50;;;5.90;99.90;;;;;;5073820;28;20063;-79
2022/10/09 06:07:48;;;;;;;18.67;10.45;;;5.90;99.90;;;;;;5056269;28;20056;-79
2022/10/09 06:10:13;;;;;;;18.15;10.15;;;5.90;99.90;;;;;;5049422;28;20146;-81
2022/10/09 06:12:39;;;;;;;24.33;11.77;;;5.90;99.90;;;;;;5063245;28;20504;-78
2022/10/09 06:15:06;;;;;;;19.85;10.90;;;5.90;99.90;;;;;;5050572;28;20465;-80
2022/10/09 06:21:15;;;;;;;19.55;10.32;;;6.00;99.90;;;;;;5096914;28;20047;-76
2022/10/09 06:23:41;;;;;;;22.20;10.60;;;6.00;99.90;;;;;;5058294;28;20432;-83
2022/10/09 06:26:10;;;;;;;22.88;10.93;;;6.10;99.90;;;;;;5066139;28;20043;-77
2022/10/09 06:28:35;;;;;;;22.85;10.88;;;6.10;99.90;;;;;;5055077;28;20140;-80
2022/10/09 06:31:19;;;;;;;24.75;11.02;;;6.10;99.90;;;;;;5082325;28;20933;-75
2022/10/09 06:33:47;;;;;;;23.38;10.38;;;6.20;99.90;;;;;;5051679;28;20047;-78
2022/10/09 06:36:15;;;;;;;18.38;9.43;;;6.20;99.90;;;;;;5048839;28;20056;-77
2022/10/09 06:38:41;;;;;;;24.60;10.70;;;6.20;99.90;;;;;;5055522;28;20329;-79
2022/10/09 06:41:12;;;;;;;21.58;10.82;;;6.20;99.90;;;;;;5062841;28;20452;-79
2022/10/09 06:43:41;;;;;;;19.65;10.05;;;6.30;99.90;;;;;;5048272;28;20185;-76
2022/10/09 06:46:10;;;;;;;19.40;10.55;;;6.40;99.90;;;;;;5050044;28;20081;-79
2022/10/09 06:48:38;;;;;;;22.38;9.88;;;6.30;99.90;;;;;;5065879;28;20048;-79
2022/10/09 06:51:13;;;;;;;19.70;9.88;;;6.40;99.90;;;;;;5047533;28;20506;-81
2022/10/09 06:53:41;;;;;;;23.17;10.45;;;6.50;99.90;;;;;;5067932;28;20040;-82
2022/10/09 06:56:09;;;;;;;20.17;9.77;;;6.50;99.90;;;;;;5063214;28;20075;-79
2022/10/09 06:58:35;;;;;;;19.10;9.48;;;6.50;99.90;;;;;;5050361;28;20052;-80
2022/10/09 07:01:06;;;;;;;20.75;9.88;;;6.60;99.90;;;;;;5047988;28;20378;-79
2022/10/09 07:03:32;;;;;;;18.58;10.23;;;6.60;99.90;;;;;;5052375;28;20033;-80
2022/10/09 07:06:17;;;;;;;20.95;10.45;;;6.70;99.90;;;;;;5062792;28;20099;-80
2022/10/09 07:08:47;;;;;;;26.05;12.55;;;6.70;99.90;;;;;;5060291;28;20051;-80
2022/10/09 07:11:15;;;;;;;31.58;14.82;;;6.80;99.90;;;;;;5046729;28;20136;-79
2022/10/09 07:13:42;;;;;;;30.92;15.43;;;6.90;99.90;;;;;;5049183;28;20124;-85
2022/10/09 07:16:10;;;;;;;28.67;18.35;;;6.90;99.90;;;;;;5071354;28;20033;-83
2022/10/09 07:18:36;;;;;;;32.20;19.20;;;6.90;99.90;;;;;;5067545;28;20181;-82
2022/10/09 07:21:04;;;;;;;31.85;19.48;;;7.00;99.90;;;;;;5064293;28;20392;-78
2022/10/09 07:23:31;;;;;;;34.53;21.25;;;7.10;99.90;;;;;;5070377;28;20109;-82
2022/10/09 07:25:57;;;;;;;34.50;21.35;;;7.10;99.90;;;;;;5048993;28;20048;-79
2022/10/09 07:28:25;;;;;;;37.65;22.17;;;7.20;99.90;;;;;;5064476;28;20054;-82
2022/10/09 07:30:51;;;;;;;38.67;22.10;;;7.30;99.90;;;;;;5071710;28;20062;-83
2022/10/09 07:33:17;;;;;;;42.35;23.50;;;7.30;99.90;;;;;;5062637;28;20060;-82
2022/10/09 07:35:51;;;;;;;39.58;23.23;;;7.50;99.90;;;;;;5073311;28;20123;-83
2022/10/09 07:38:17;;;;;;;36.45;23.42;;;7.40;99.90;;;;;;5047663;28;20192;-83
2022/10/09 07:40:42;;;;;;;39.25;23.88;;;7.50;99.90;;;;;;5050019;28;20479;-81
2022/10/09 07:43:08;;;;;;;39.83;22.95;;;7.70;99.90;;;;;;5065988;28;20101;-82
2022/10/09 07:45:34;;;;;;;41.17;22.65;;;7.60;99.90;;;;;;5063803;28;20432;-81
2022/10/09 07:48:00;;;;;;;35.08;21.80;;;7.70;99.90;;;;;;5089574;28;20093;-80
2022/10/09 07:50:26;;;;;;;39.90;21.67;;;7.80;99.90;;;;;;5049344;28;20498;-81
2022/10/09 07:52:51;;;;;;;36.03;21.05;;;7.90;99.90;;;;;;5047346;28;20032;-82
2022/10/09 07:55:18;;;;;;;43.35;22.02;;;7.90;99.90;;;;;;5057122;28;20526;-81
2022/10/09 07:57:44;;;;;;;35.25;21.13;;;8.00;99.90;;;;;;5052192;28;20040;-80
2022/10/09 08:00:10;;;;;;;43.25;21.92;;;8.00;99.90;;;;;;5053146;28;20042;-81
2022/10/09 08:02:54;;;;;;;33.90;19.60;;;8.10;99.90;;;;;;5065434;28;21001;-82
2022/10/09 08:05:20;;;;;;;32.08;18.88;;;8.10;99.90;;;;;;5047744;28;20036;-80
2022/10/09 08:07:46;;;;;;;31.20;18.52;;;8.30;99.90;;;;;;5048664;28;20040;-80
2022/10/09 08:10:11;;;;;;;36.92;18.60;;;8.40;99.90;;;;;;5066868;28;20036;-80
2022/10/09 08:12:37;;;;;;;32.75;18.35;;;8.50;99.90;;;;;;5068832;28;20472;-82
2022/10/09 08:15:03;;;;;;;34.13;17.92;;;8.60;99.90;;;;;;5067440;28;20855;-79
2022/10/09 08:17:29;;;;;;;26.70;17.42;;;8.60;99.90;;;;;;5082299;28;20039;-81
2022/10/09 08:19:56;;;;;;;28.05;14.35;;;8.80;99.90;;;;;;5065775;28;20052;-84
2022/10/09 08:22:22;;;;;;;30.85;14.25;;;8.70;99.90;;;;;;5055370;28;20066;-81
2022/10/09 08:24:48;;;;;;;24.55;12.40;;;8.90;99.90;;;;;;5066486;28;20044;-82
2022/10/09 08:27:14;;;;;;;23.02;10.32;;;9.00;99.90;;;;;;5030988;28;20067;-83
2022/10/09 08:29:39;;;;;;;26.35;10.32;;;9.00;99.90;;;;;;5062331;28;20036;-80
2022/10/09 08:32:05;;;;;;;16.88;9.25;;;9.10;99.90;;;;;;5054677;28;20163;-82
2022/10/09 08:34:31;;;;;;;24.58;9.05;;;9.20;99.90;;;;;;5051574;28;20067;-81
2022/10/09 08:36:57;;;;;;;18.75;8.32;;;9.20;99.90;;;;;;5066137;28;20044;-81
2022/10/09 08:39:23;;;;;;;18.15;7.95;;;9.40;99.90;;;;;;5067441;28;20047;-81
2022/10/09 08:41:52;;;;;;;21.20;7.32;;;9.40;99.90;;;;;;5073610;28;20028;-82
2022/10/09 08:44:30;;;;;;;22.45;7.43;;;9.50;99.90;;;;;;5056478;28;20134;-79
2022/10/09 08:47:41;;;;;;;15.88;7.47;;;9.60;99.90;;;;;;5062821;28;20040;-83
2022/10/09 08:50:18;;;;;;;19.40;7.45;;;9.70;99.90;;;;;;5006762;28;20053;-80
2022/10/09 08:53:00;;;;;;;19.88;6.25;;;9.80;99.90;;;;;;4989722;28;20675;-79
2022/10/09 08:55:34;;;;;;;13.90;6.50;;;9.80;99.90;;;;;;5005197;28;20064;-80
2022/10/09 08:58:03;;;;;;;12.07;5.25;;;10.00;99.90;;;;;;4999472;28;20041;-83
2022/10/09 09:01:12;;;;;;;15.75;5.28;;;10.00;99.90;;;;;;5006192;28;20280;-79
2022/10/09 09:03:38;;;;;;;12.98;5.22;;;10.00;99.90;;;;;;4945984;28;20150;-83
2022/10/09 09:06:37;;;;;;;24.70;5.82;;;10.10;99.90;;;;;;4952945;28;20057;-81
2022/10/09 09:09:17;;;;;;;14.55;5.40;;;10.30;99.90;;;;;;4946547;28;20523;-82
2022/10/09 09:12:08;;;;;;;14.05;5.05;;;10.30;99.90;;;;;;4953337;28;20098;-80
2022/10/09 09:14:39;;;;;;;13.02;5.10;;;10.50;99.90;;;;;;4953887;28;20600;-82
2022/10/09 09:17:24;;;;;;;17.50;4.53;;;10.50;99.90;;;;;;4953382;28;20042;-83
2022/10/09 09:20:07;;;;;;;12.17;4.47;;;10.60;99.90;;;;;;4954200;28;20800;-80
2022/10/09 09:22:34;;;;;;;17.92;4.75;;;10.80;99.90;;;;;;4953395;28;20309;-81
2022/10/09 09:25:14;;;;;;;12.60;4.30;;;10.80;99.90;;;;;;4954533;28;20060;-83
2022/10/09 09:27:41;;;;;;;11.25;4.05;;;10.90;99.90;;;;;;5005247;28;20131;-81
2022/10/09 09:30:17;;;;;;;13.85;4.20;;;10.90;99.90;;;;;;4992714;28;20049;-83
2022/10/09 09:33:03;;;;;;;10.93;3.60;;;11.00;99.90;;;;;;5024812;28;20029;-81
2022/10/09 09:35:33;;;;;;;;;;;11.10;99.90;;;;;;5025539;28;20053;-80
2022/10/09 09:37:59;;;;;;;11.75;3.20;;;11.20;99.90;;;;;;5010546;28;20432;-82
2022/10/09 09:40:31;;;;;;;11.05;3.10;;;11.20;99.90;;;;;;5021078;28;20514;-77
2022/10/09 09:42:59;;;;;;;;;;;11.20;99.90;;;;;;5051389;28;20415;-80
2022/10/09 09:45:25;;;;;;;10.30;3.45;;;11.40;99.90;;;;;;5056081;28;19916;-83
2022/10/09 09:48:05;;;;;;;10.57;2.97;;;11.40;99.90;;;;;;5051005;28;20473;-81
2022/10/09 09:50:35;;;;;;;13.75;3.40;;;11.50;99.90;;;;;;5056239;28;20044;-82
2022/10/09 09:53:06;;;;;;;10.20;3.20;;;11.60;99.90;;;;;;5072217;28;20032;-80
2022/10/09 09:55:33;;;;;;;12.18;3.13;;;11.60;99.90;;;;;;5056145;28;20043;-84
2022/10/09 09:58:07;;;;;;;15.77;3.20;;;11.60;99.90;;;;;;5058095;28;20183;-83
2022/10/09 10:00:34;;;;;;;15.45;3.10;;;11.70;99.90;;;;;;5072946;28;20871;-81
2022/10/09 10:03:02;;;;;;;11.52;2.90;;;11.80;99.90;;;;;;5080938;28;20036;-80
2022/10/09 10:05:35;;;;;;;8.80;2.28;;;11.90;99.90;;;;;;5044767;28;20117;-82
2022/10/09 10:08:31;;;;;;;12.05;2.80;;;12.00;99.90;;;;;;5063801;28;20040;-82
2022/10/09 10:11:07;;;;;;;16.23;2.97;;;12.00;99.90;;;;;;5066655;28;20491;-83
2022/10/09 10:13:34;;;;;;;12.52;2.60;;;12.10;99.90;;;;;;5048945;28;20039;-82
2022/10/09 10:16:00;;;;;;;11.38;2.50;;;12.20;99.90;;;;;;5066862;28;20399;-83
2022/10/09 10:18:29;;;;;;;11.88;2.65;;;12.20;99.90;;;;;;5073398;28;20249;-82
2022/10/09 10:21:05;;;;;;;15.30;2.40;;;12.10;99.90;;;;;;5085397;28;20048;-83
2022/10/09 10:23:34;;;;;;;12.77;2.22;;;12.30;99.90;;;;;;5071277;28;20067;-80
2022/10/09 10:26:09;;;;;;;14.43;2.85;;;12.30;99.90;;;;;;5075280;28;20048;-81
2022/10/09 10:28:47;;;;;;;10.70;2.38;;;12.40;99.90;;;;;;5077246;28;20490;-79
2022/10/09 10:31:30;;;;;;;10.80;2.58;;;12.50;99.90;;;;;;5075875;28;20032;-82
2022/10/09 10:33:56;;;;;;;10.32;2.47;;;12.50;99.90;;;;;;5050286;28;20475;-81
2022/10/09 10:36:26;;;;;;;13.98;2.47;;;12.70;99.90;;;;;;5070003;28;20044;-83
2022/10/09 10:39:17;;;;;;;8.57;2.40;;;12.80;99.90;;;;;;5071721;28;20090;-82
2022/10/09 10:41:48;;;;;;;11.20;2.30;;;12.80;99.90;;;;;;5071266;28;20068;-81
2022/10/09 10:44:32;;;;;;;8.32;1.83;;;12.90;99.90;;;;;;5066249;28;20061;-81
2022/10/09 10:47:02;;;;;;;7.90;1.77;;;13.00;99.90;;;;;;5047405;28;20451;-82
2022/10/09 10:49:28;;;;;;;8.77;1.90;;;13.20;99.90;;;;;;5087942;28;20364;-80
2022/10/09 10:52:10;;;;;;;8.00;1.70;;;13.30;99.90;;;;;;5051354;28;20033;-81
2022/10/09 10:54:45;;;;;;;10.80;1.85;;;13.40;99.90;;;;;;5052340;28;20036;-83
2022/10/09 10:57:18;;;;;;;9.32;1.75;;;13.40;99.90;;;;;;5061923;28;20040;-82
2022/10/09 10:59:49;;;;;;;7.13;1.70;;;13.30;99.90;;;;;;5067082;28;20048;-79
2022/10/09 11:02:34;;;;;;;12.13;2.42;;;13.40;99.90;;;;;;5064135;28;20055;-82
2022/10/09 11:05:21;;;;;;;14.03;3.13;;;13.50;99.90;;;;;;5063997;28;20043;-83
2022/10/09 11:08:05;;;;;;;11.07;1.77;;;13.60;99.90;;;;;;5051905;28;20384;-83
2022/10/09 11:10:40;;;;;;;13.15;2.30;;;13.60;99.90;;;;;;5068195;28;20044;-82
2022/10/09 11:13:11;;;;;;;9.43;1.80;;;13.70;99.90;;;;;;5054658;28;20040;-80
2022/10/09 11:16:00;;;;;;;9.80;1.70;;;13.70;99.90;;;;;;5094975;28;20036;-82
2022/10/09 11:22:29;;;;;;;10.38;1.85;;;13.80;99.90;;;;;;5096732;28;20055;-77
2022/10/09 11:25:25;;;;;;;6.50;1.48;;;13.80;99.90;;;;;;5072111;28;20452;-79
2022/10/09 11:28:01;;;;;;;;;;;13.90;99.90;;;;;;5056129;28;20140;-80
2022/10/09 11:30:33;;;;;;;5.43;1.67;;;14.00;99.90;;;;;;5067247;28;19927;-78
2022/10/09 11:33:29;;;;;;;6.80;1.40;;;13.90;99.90;;;;;;5055861;28;20039;-80
2022/10/09 11:36:11;;;;;;;10.07;1.65;;;14.10;99.90;;;;;;5065492;28;20055;-78
2022/10/09 11:38:43;;;;;;;8.77;1.73;;;14.20;99.90;;;;;;5068140;28;20454;-82
2022/10/09 11:41:09;;;;;;;11.27;2.10;;;14.10;99.90;;;;;;5057978;28;20039;-81
2022/10/09 11:43:57;;;;;;;9.98;1.90;;;14.20;99.90;;;;;;5070853;28;20123;-82
2022/10/09 11:46:33;;;;;;;11.93;2.30;;;14.30;99.90;;;;;;5051645;28;20048;-80
2022/10/09 11:49:18;;;;;;;10.52;1.95;;;14.20;99.90;;;;;;5066813;28;20032;-82
2022/10/09 11:51:59;;;;;;;8.73;2.17;;;14.40;99.90;;;;;;5061319;28;20083;-80
2022/10/09 11:54:26;;;;;;;6.85;1.60;;;14.50;99.90;;;;;;5040495;28;20040;-77
2022/10/09 11:57:03;;;;;;;13.25;1.80;;;14.50;99.90;;;;;;5062521;28;20075;-81
2022/10/09 11:59:33;;;;;;;7.70;1.70;;;14.60;99.90;;;;;;5067374;28;20079;-81
2022/10/09 12:02:22;;;;;;;6.47;1.70;;;14.60;99.90;;;;;;5033169;28;20041;-80
2022/10/09 12:04:47;;;;;;;8.95;1.83;;;14.70;99.90;;;;;;5043122;28;20059;-80
2022/10/09 12:07:35;;;;;;;9.48;1.70;;;14.80;99.90;;;;;;5068115;28;20450;-81
2022/10/09 12:10:30;;;;;;;6.22;1.60;;;15.00;99.90;;;;;;5068338;28;20050;-82
2022/10/09 12:13:04;;;;;;;6.55;1.55;;;15.20;99.90;;;;;;5075129;28;20802;-81
2022/10/09 12:15:57;;;;;;;10.48;2.30;;;15.10;99.90;;;;;;5049856;28;20404;-78
2022/10/09 12:18:30;;;;;;;10.20;2.10;;;15.10;99.90;;;;;;5058008;28;20578;-80
2022/10/09 12:20:59;;;;;;;7.70;2.22;;;15.20;99.90;;;;;;5074897;28;20067;-80
2022/10/09 12:23:28;;;;;;;13.60;2.03;;;15.20;99.90;;;;;;5030441;28;20044;-84
2022/10/09 12:25:55;;;;;;;7.72;1.67;;;15.30;99.90;;;;;;5049129;28;20076;-83
2022/10/09 12:28:29;;;;;;;7.93;1.75;;;15.40;99.90;;;;;;5053565;28;20033;-82
2022/10/09 12:30:58;;;;;;;5.85;1.70;;;15.40;99.90;;;;;;5070489;28;20028;-86
2022/10/09 12:33:35;;;;;;;8.85;2.00;;;15.30;99.90;;;;;;5067790;28;20114;-83
2022/10/09 12:36:21;;;;;;;12.32;2.72;;;15.30;99.90;;;;;;5054338;28;20197;-81
2022/10/09 12:38:46;;;;;;;6.90;1.70;;;15.40;99.90;;;;;;5050061;28;20044;-83
2022/10/09 12:41:20;;;;;;;6.90;1.67;;;15.30;99.90;;;;;;5049460;28;20066;-80
2022/10/09 12:43:48;;;;;;;10.77;1.98;;;15.30;99.90;;;;;;5075078;28;20054;-81
2022/10/09 12:46:24;;;;;;;7.93;1.75;;;15.40;99.90;;;;;;5041716;28;20115;-80
2022/10/09 12:48:49;;;;;;;7.80;1.67;;;15.40;99.90;;;;;;5042046;28;20083;-83
2022/10/09 12:51:25;;;;;;;7.00;1.70;;;15.40;99.90;;;;;;5073199;28;20059;-82
2022/10/09 12:53:52;;;;;;;8.50;1.90;;;15.40;99.90;;;;;;5069846;28;20036;-81
2022/10/09 12:56:29;;;;;;;10.10;2.03;;;15.50;99.90;;;;;;5069679;28;20045;-82
2022/10/09 12:58:56;;;;;;;6.82;2.03;;;15.70;99.90;;;;;;5056101;28;20035;-79
2022/10/09 13:01:23;;;;;;;10.35;2.45;;;15.70;99.90;;;;;;5053136;28;20044;-82
2022/10/09 13:03:57;;;;;;;9.27;2.30;;;15.90;99.90;;;;;;5057087;28;20051;-83
2022/10/09 13:06:30;;;;;;;11.30;2.00;;;15.90;99.90;;;;;;5055599;28;20050;-81
2022/10/09 13:09:01;;;;;;;8.07;2.13;;;16.00;99.90;;;;;;5047375;28;20135;-80